Time;durP1;ratioP1;P1;durP2;ratioP2;P2;SDS_P1;SDS_P2;PMS_P1;PMS_P2;Temp;Humidity;BMP_temperature;BMP_pressure;BME280_temperature;BME280_humidity;BME280_pressure;Samples;Min_cycle;Max_cycle;Signal;HPM_P1;HPM_P2
2022/07/24 00:01:43;;;;;;;11.68;5.80;;;19.30;99.90;;;16.20;100.00;100920.19;5057622;28;20064;-81
2022/07/24 00:04:10;;;;;;;10.00;6.30;;;19.30;99.90;;;16.17;100.00;100926.13;5055982;28;20044;-81
2022/07/24 00:06:38;;;;;;;9.25;5.45;;;19.30;99.90;;;16.13;100.00;100917.47;5060911;28;20048;-81
2022/07/24 00:09:06;;;;;;;10.65;5.82;;;19.20;99.90;;;16.12;100.00;100912.16;5060948;28;20050;-81
2022/07/24 00:11:34;;;;;;;10.05;5.30;;;19.30;99.90;;;16.14;100.00;100913.63;5056929;28;20080;-81
2022/07/24 00:14:01;;;;;;;9.57;5.80;;;19.20;99.90;;;16.16;100.00;100913.44;5059703;28;20271;-80
2022/07/24 00:16:28;;;;;;;8.07;5.57;;;19.20;99.90;;;16.18;100.00;100916.81;5050813;28;20048;-81
2022/07/24 00:18:57;;;;;;;10.25;6.40;;;19.20;99.90;;;16.19;100.00;100902.03;5059244;28;20132;-80
2022/07/24 00:21:24;;;;;;;9.65;6.53;;;19.20;99.90;;;16.20;100.00;100909.19;5048567;28;20409;-80
2022/07/24 00:23:52;;;;;;;10.30;6.32;;;19.20;99.90;;;16.21;100.00;100905.41;5060082;28;20086;-80
2022/07/24 00:26:19;;;;;;;11.20;6.53;;;19.20;99.90;;;16.20;100.00;100915.56;5054097;28;20394;-81
2022/07/24 00:28:48;;;;;;;9.63;6.30;;;19.20;99.90;;;16.18;100.00;100911.31;5050882;28;20123;-81
2022/07/24 00:31:15;;;;;;;10.90;6.60;;;19.20;99.90;;;16.14;100.00;100904.56;5053634;28;20735;-81
2022/07/24 00:33:42;;;;;;;10.10;6.53;;;19.20;99.90;;;16.11;100.00;100905.00;5052794;28;20443;-81
2022/07/24 00:36:11;;;;;;;10.80;6.43;;;19.20;99.90;;;16.10;100.00;100901.38;5051227;28;20040;-81
2022/07/24 00:38:39;;;;;;;10.48;6.30;;;19.20;99.90;;;16.08;100.00;100899.91;5050597;28;20429;-81
2022/07/24 00:41:06;;;;;;;10.00;6.78;;;19.20;99.90;;;16.05;100.00;100900.34;5052580;28;20124;-81
2022/07/24 00:43:33;;;;;;;10.43;6.47;;;19.10;99.90;;;16.03;100.00;100898.66;5063366;28;20037;-81
2022/07/24 00:46:00;;;;;;;9.82;6.10;;;19.10;99.90;;;15.97;100.00;100894.03;5051265;28;20049;-81
2022/07/24 00:48:28;;;;;;;10.00;6.15;;;19.10;99.90;;;16.00;100.00;100898.25;5048987;28;20072;-81
2022/07/24 00:50:55;;;;;;;10.80;6.38;;;19.10;99.90;;;16.03;100.00;100898.66;5049262;28;20045;-81
2022/07/24 00:53:24;;;;;;;10.73;5.97;;;19.10;99.90;;;16.02;100.00;100896.97;5050882;28;20504;-81
2022/07/24 00:55:51;;;;;;;11.10;6.53;;;19.10;99.90;;;16.03;100.00;100892.34;5059310;28;20051;-81
2022/07/24 00:58:18;;;;;;;14.85;6.10;;;19.20;99.90;;;15.98;100.00;100894.84;5042261;28;20045;-81
2022/07/24 01:00:45;;;;;;;11.18;6.78;;;19.00;99.90;;;15.96;100.00;100897.81;5057870;28;20037;-81
2022/07/24 01:03:13;;;;;;;10.98;6.10;;;19.00;99.90;;;15.94;100.00;100899.91;5070559;28;20050;-81
2022/07/24 01:05:40;;;;;;;9.15;5.75;;;19.00;99.90;;;15.91;100.00;100900.34;5067630;28;20115;-81
2022/07/24 01:08:07;;;;;;;10.07;5.68;;;19.00;99.90;;;15.93;100.00;100903.72;5048770;28;20045;-81
2022/07/24 01:10:36;;;;;;;8.43;5.82;;;19.00;99.90;;;15.90;100.00;100897.81;5052474;28;20080;-81
2022/07/24 01:13:03;;;;;;;11.40;6.18;;;19.00;99.90;;;15.88;100.00;100895.28;5062849;28;20041;-81
2022/07/24 01:15:31;;;;;;;8.95;5.88;;;19.00;99.90;;;15.86;100.00;100902.88;5050439;28;20045;-81
2022/07/24 01:17:58;;;;;;;10.85;6.18;;;19.00;99.90;;;15.85;100.00;100901.19;5030894;28;20107;-81
2022/07/24 01:20:25;;;;;;;10.65;6.05;;;19.00;99.90;;;15.83;100.00;100900.53;5052117;28;20128;-81
2022/07/24 01:22:53;;;;;;;8.60;5.88;;;18.90;99.90;;;15.79;100.00;100902.03;5058300;28;20047;-81
2022/07/24 01:25:21;;;;;;;8.95;5.35;;;18.90;99.90;;;15.77;100.00;100898.66;5048705;28;20049;-81
2022/07/24 01:27:48;;;;;;;11.05;6.10;;;18.90;99.90;;;15.75;100.00;100903.50;5050524;28;20076;-81
2022/07/24 01:30:15;;;;;;;8.48;5.90;;;18.90;99.90;;;15.75;100.00;100896.09;5055781;28;20039;-81
2022/07/24 01:32:43;;;;;;;9.02;5.35;;;18.90;99.90;;;15.72;100.00;100893.75;5058636;28;20128;-81
2022/07/24 01:35:10;;;;;;;12.15;6.03;;;18.90;99.90;;;15.71;100.00;100899.47;5066516;28;20036;-81
2022/07/24 01:37:37;;;;;;;9.38;5.95;;;18.90;99.90;;;15.70;100.00;100892.28;5050271;28;20094;-81
2022/07/24 01:40:07;;;;;;;9.68;5.63;;;18.90;99.90;;;15.63;100.00;100884.88;5056142;28;20048;-81
2022/07/24 01:42:34;;;;;;;8.88;5.90;;;18.80;99.90;;;15.58;100.00;100890.13;5051233;28;20145;-81
2022/07/24 01:45:01;;;;;;;9.68;5.80;;;18.80;99.90;;;15.57;100.00;100887.59;5049433;28;20043;-81
2022/07/24 01:47:29;;;;;;;10.10;5.75;;;18.80;99.90;;;15.57;100.00;100888.47;5063257;28;20559;-81
2022/07/24 01:49:56;;;;;;;8.45;5.63;;;18.80;99.90;;;15.54;100.00;100888.88;5065049;28;20037;-81
2022/07/24 01:52:25;;;;;;;11.60;6.30;;;18.70;99.90;;;15.55;100.00;100887.81;5062689;28;20119;-81
2022/07/24 01:54:52;;;;;;;8.07;5.90;;;18.70;99.90;;;15.54;100.00;100883.38;5061119;28;20044;-81
2022/07/24 01:57:21;;;;;;;10.57;5.75;;;18.70;99.90;;;15.54;100.00;100877.06;5050258;28;20098;-81
2022/07/24 01:59:48;;;;;;;8.00;5.88;;;18.70;99.90;;;15.52;100.00;100884.66;5045179;28;20048;-81
2022/07/24 02:02:16;;;;;;;11.70;6.43;;;18.70;99.90;;;15.52;100.00;100880.00;5049645;28;20041;-81
2022/07/24 02:04:43;;;;;;;10.07;6.40;;;18.70;99.90;;;15.52;100.00;100880.00;5049627;28;20071;-81
2022/07/24 02:07:10;;;;;;;9.32;6.13;;;18.70;99.90;;;15.52;100.00;100879.16;5050008;28;20036;-81
2022/07/24 02:09:37;;;;;;;10.95;6.20;;;18.70;99.90;;;15.52;100.00;100882.75;5049674;28;20040;-81
2022/07/24 02:12:05;;;;;;;9.20;6.13;;;18.70;99.90;;;15.51;100.00;100871.97;5047635;28;20049;-81
2022/07/24 02:14:33;;;;;;;12.27;6.90;;;18.70;99.90;;;15.51;100.00;100875.56;5054539;28;20621;-81
2022/07/24 02:17:01;;;;;;;9.40;6.10;;;18.70;99.90;;;15.48;100.00;100876.00;5049331;28;20037;-81
2022/07/24 02:19:28;;;;;;;9.32;6.85;;;18.60;99.90;;;15.48;100.00;100878.75;5053091;28;20050;-81
2022/07/24 02:21:56;;;;;;;9.68;6.30;;;18.60;99.90;;;15.46;100.00;100875.38;5054866;28;20116;-81
2022/07/24 02:24:23;;;;;;;9.93;6.65;;;18.60;99.90;;;15.47;100.00;100870.72;5049793;28;20033;-81
2022/07/24 02:26:50;;;;;;;9.27;5.80;;;18.60;99.90;;;15.47;100.00;100877.03;5049557;28;20123;-81
2022/07/24 02:29:18;;;;;;;10.55;6.22;;;18.60;99.90;;;15.46;100.00;100869.88;5050509;28;20048;-81
2022/07/24 02:31:46;;;;;;;9.73;5.93;;;18.60;99.90;;;15.43;100.00;100868.38;5052251;28;20053;-81
2022/07/24 02:34:13;;;;;;;11.02;6.32;;;18.60;99.90;;;15.42;100.00;100869.44;5051971;28;20111;-81
2022/07/24 02:36:41;;;;;;;12.43;6.28;;;18.60;99.90;;;15.42;100.00;100874.06;5054683;28;20049;-81
2022/07/24 02:39:09;;;;;;;9.15;6.00;;;18.50;99.90;;;15.40;100.00;100868.81;5050504;28;20045;-81
2022/07/24 02:41:36;;;;;;;10.38;6.47;;;18.50;99.90;;;15.40;100.00;100867.94;5060829;28;20131;-81
2022/07/24 02:44:03;;;;;;;8.02;5.75;;;18.50;99.90;;;15.39;100.00;100860.78;5069571;28;20123;-80
2022/07/24 02:46:31;;;;;;;9.27;6.20;;;18.50;99.90;;;15.35;100.00;100854.03;5064399;28;20044;-81
2022/07/24 02:48:59;;;;;;;9.60;5.97;;;18.50;99.90;;;15.37;100.00;100860.97;5045748;28;20033;-81
2022/07/24 02:51:26;;;;;;;11.23;6.65;;;18.50;99.90;;;15.35;100.00;100851.28;5057409;28;20041;-81
2022/07/24 02:53:54;;;;;;;9.93;6.22;;;18.40;99.90;;;15.38;100.00;100845.38;5049499;28;20530;-81
2022/07/24 02:56:21;;;;;;;10.25;6.13;;;18.40;99.90;;;15.40;100.00;100856.97;5045021;28;20558;-81
2022/07/24 02:58:49;;;;;;;8.88;6.20;;;18.40;99.90;;;15.36;100.00;100853.78;5055727;28;20408;-81
2022/07/24 03:01:16;;;;;;;10.13;6.78;;;18.50;99.90;;;15.37;100.00;100855.50;5060406;28;20041;-81
2022/07/24 03:03:43;;;;;;;10.35;6.25;;;18.40;99.90;;;15.34;100.00;100849.59;5069357;28;20136;-81
2022/07/24 03:06:12;;;;;;;9.43;6.07;;;18.40;99.90;;;15.34;100.00;100841.34;5047549;28;20584;-81
2022/07/24 03:08:39;;;;;;;9.25;6.25;;;18.40;99.90;;;15.36;100.00;100842.00;5046798;28;20558;-81
2022/07/24 03:11:06;;;;;;;12.23;6.50;;;18.40;99.90;;;15.36;100.00;100836.50;5055209;28;20055;-81
2022/07/24 03:13:33;;;;;;;9.68;5.65;;;18.40;99.90;;;15.39;100.00;100847.06;5063087;28;20045;-81
2022/07/24 03:16:00;;;;;;;10.25;6.28;;;18.40;99.90;;;15.37;100.00;100844.53;5049442;28;20045;-81
2022/07/24 03:18:28;;;;;;;8.48;6.32;;;18.40;99.90;;;15.40;100.00;100846.00;5052677;28;20040;-82
2022/07/24 03:20:55;;;;;;;8.85;6.38;;;18.40;99.90;;;15.40;100.00;100837.78;5059069;28;20049;-81
2022/07/24 03:23:23;;;;;;;10.02;7.00;;;18.40;99.90;;;15.42;100.00;100838.41;5048826;28;20036;-81
2022/07/24 03:25:52;;;;;;;10.23;6.47;;;18.40;99.90;;;15.41;100.00;100834.00;5048877;28;20051;-81
2022/07/24 03:28:19;;;;;;;7.88;6.03;;;18.40;99.90;;;15.38;100.00;100829.78;5043837;28;20403;-81
2022/07/24 03:30:47;;;;;;;8.38;6.38;;;18.40;99.90;;;15.41;100.00;100834.81;5052329;28;20037;-81
2022/07/24 03:33:14;;;;;;;8.30;6.18;;;18.40;99.90;;;15.43;100.00;100837.38;5058971;28;20039;-82
2022/07/24 03:35:41;;;;;;;9.70;6.50;;;18.40;99.90;;;15.44;100.00;100839.06;5052689;28;20041;-81
2022/07/24 03:38:08;;;;;;;7.53;5.85;;;18.40;99.90;;;15.44;100.00;100836.31;5034577;28;20056;-81
2022/07/24 03:40:37;;;;;;;10.50;6.25;;;18.40;99.90;;;15.42;100.00;100833.78;5048823;28;20053;-81
2022/07/24 03:43:04;;;;;;;13.27;6.50;;;18.40;99.90;;;15.45;100.00;100840.75;5052362;28;20044;-81
2022/07/24 03:45:31;;;;;;;9.02;6.38;;;18.40;99.90;;;15.44;100.00;100836.31;5051913;28;20060;-81
2022/07/24 03:47:58;;;;;;;10.55;6.55;;;18.40;99.90;;;15.45;100.00;100840.75;5052533;28;20147;-82
2022/07/24 03:50:25;;;;;;;11.30;6.32;;;18.40;99.90;;;15.49;100.00;100841.16;5051308;28;20071;-81
2022/07/24 03:52:52;;;;;;;10.63;6.88;;;18.40;99.90;;;15.51;100.00;100845.38;5061567;28;20044;-81
2022/07/24 03:55:20;;;;;;;8.68;6.50;;;18.40;99.90;;;15.51;100.00;100839.91;5052254;28;20037;-81
2022/07/24 03:57:48;;;;;;;8.73;6.20;;;18.40;99.90;;;15.55;100.00;100843.91;5050653;28;20041;-81
2022/07/24 04:00:17;;;;;;;10.63;6.68;;;18.40;99.90;;;15.60;100.00;100851.53;5054281;28;20041;-81
2022/07/24 04:02:44;;;;;;;11.98;6.75;;;18.40;99.90;;;15.61;100.00;100851.31;5063070;28;20044;-81
2022/07/24 04:05:13;;;;;;;12.98;7.00;;;18.40;99.90;;;15.64;100.00;100856.38;5062952;28;20250;-81
2022/07/24 04:07:40;;;;;;;11.60;6.45;;;18.40;99.90;;;15.68;100.00;100855.97;5059706;28;20091;-81
2022/07/24 04:10:09;;;;;;;8.90;5.93;;;18.50;99.90;;;15.68;100.00;100858.72;5074145;22;20023;-84
2022/07/24 04:12:37;;;;;;;10.32;5.95;;;18.50;99.90;;;15.70;100.00;100848.38;5050380;28;20054;-84
2022/07/24 04:15:08;;;;;;;9.52;6.05;;;18.50;99.90;;;15.74;100.00;100855.16;5031492;28;20060;-83
2022/07/24 04:17:39;;;;;;;11.00;6.45;;;18.50;99.90;;;15.78;100.00;100850.94;5043441;28;20053;-83
2022/07/24 04:20:09;;;;;;;11.65;6.32;;;18.50;99.90;;;15.83;100.00;100845.66;5032349;28;20482;-83
2022/07/24 04:22:36;;;;;;;9.50;6.25;;;18.50;99.90;;;15.90;100.00;100842.94;5053988;28;20049;-83
2022/07/24 04:25:04;;;;;;;8.20;6.15;;;18.50;99.90;;;15.95;100.00;100841.19;5049444;28;20047;-84
2022/07/24 04:27:31;;;;;;;10.30;6.75;;;18.60;99.90;;;16.05;100.00;100834.44;5045718;28;20618;-83
2022/07/24 04:29:58;;;;;;;7.97;6.18;;;18.60;99.90;;;16.10;100.00;100842.91;5050436;28;20041;-82
2022/07/24 04:32:27;;;;;;;10.73;6.57;;;18.60;99.90;;;16.15;100.00;100845.84;5033583;28;20060;-83
2022/07/24 04:34:54;;;;;;;10.15;7.10;;;18.60;99.90;;;16.18;100.00;100842.66;5045357;28;20041;-84
2022/07/24 04:37:21;;;;;;;10.98;6.45;;;18.60;99.90;;;16.23;100.00;100843.72;5051196;28;20119;-83
2022/07/24 04:39:48;;;;;;;9.25;6.20;;;18.60;99.90;;;16.26;100.00;100842.47;5050232;28;20052;-83
2022/07/24 04:42:16;;;;;;;9.02;6.00;;;18.70;99.90;;;16.31;100.00;100837.16;5051390;28;20120;-83
2022/07/24 04:44:43;;;;;;;10.88;7.03;;;18.70;99.90;;;16.37;100.00;100841.81;5035334;28;20120;-83
2022/07/24 04:47:10;;;;;;;11.82;6.93;;;18.70;99.90;;;16.49;100.00;100841.16;5049974;28;20045;-83
2022/07/24 04:49:39;;;;;;;9.40;6.22;;;18.70;99.90;;;16.58;100.00;100839.81;5044285;28;20099;-83
2022/07/24 04:52:06;;;;;;;10.32;6.90;;;18.80;99.90;;;16.67;100.00;100833.03;5049558;28;20059;-84
2022/07/24 04:54:33;;;;;;;9.52;6.80;;;18.80;99.90;;;16.81;100.00;100837.41;5049766;28;20053;-85
2022/07/24 04:57:00;;;;;;;11.05;7.22;;;18.80;99.90;;;17.00;100.00;100837.56;5050089;28;20116;-83
2022/07/24 04:59:27;;;;;;;11.98;7.63;;;18.90;99.90;;;17.17;100.00;100836.00;5049766;28;20072;-83
2022/07/24 05:01:55;;;;;;;10.77;6.63;;;19.00;99.90;;;17.27;100.00;100832.78;5057321;28;20052;-83
2022/07/24 05:04:22;;;;;;;9.20;7.13;;;19.10;99.90;;;17.44;100.00;100834.97;5034261;28;20053;-83
2022/07/24 05:06:50;;;;;;;10.60;7.60;;;19.10;99.90;;;17.59;100.00;100830.84;5044822;28;20042;-83
2022/07/24 05:09:18;;;;;;;13.43;7.18;;;19.20;99.90;;;17.78;100.00;100836.41;5048483;28;20045;-83
2022/07/24 05:11:45;;;;;;;9.43;6.72;;;19.20;99.90;;;17.96;100.00;100831.00;5050239;28;20072;-83
2022/07/24 05:14:12;;;;;;;9.80;7.00;;;19.30;99.90;;;18.13;100.00;100841.44;5049295;28;20076;-83
2022/07/24 05:16:39;;;;;;;7.85;6.25;;;19.40;99.90;;;18.30;100.00;100836.19;5050798;28;20119;-84
2022/07/24 05:19:07;;;;;;;8.00;6.40;;;19.50;99.90;;;18.47;100.00;100833.69;5049692;28;20083;-84
2022/07/24 05:21:34;;;;;;;10.85;6.72;;;19.50;99.90;;;18.59;100.00;100828.25;5049618;28;20076;-84
2022/07/24 05:24:03;;;;;;;11.05;6.63;;;19.60;99.90;;;18.64;100.00;100837.50;5043158;28;20549;-84
2022/07/24 05:26:31;;;;;;;8.05;6.18;;;19.70;99.90;;;18.81;100.00;100831.38;5036911;28;20494;-84
2022/07/24 05:29:03;;;;;;;9.82;6.63;;;19.70;99.90;;;19.02;100.00;100839.19;5046597;28;20442;-84
2022/07/24 05:31:30;;;;;;;7.97;5.68;;;19.80;99.90;;;19.26;100.00;100842.03;5049028;28;20088;-84
2022/07/24 05:33:58;;;;;;;9.27;6.78;;;19.90;99.90;;;19.43;100.00;100845.81;5050115;28;20489;-83
2022/07/24 05:36:29;;;;;;;9.55;6.35;;;19.90;99.90;;;19.63;99.04;100836.38;5050029;28;20048;-84
2022/07/24 05:38:57;;;;;;;8.80;6.03;;;20.00;99.90;;;19.72;98.32;100832.22;5049746;28;20450;-84
2022/07/24 05:41:25;;;;;;;9.00;6.00;;;20.10;99.90;;;19.77;98.01;100835.13;5038180;28;20128;-84
2022/07/24 05:43:53;;;;;;;9.15;6.00;;;20.20;99.90;;;19.78;97.70;100835.94;5046212;28;20049;-84
2022/07/24 05:46:21;;;;;;;9.68;6.03;;;20.30;99.90;;;19.83;96.05;100842.44;5049048;28;20564;-84
2022/07/24 05:48:48;;;;;;;8.32;5.78;;;20.30;99.90;;;19.87;96.25;100851.09;5049264;28;20047;-83
2022/07/24 05:51:15;;;;;;;9.80;6.40;;;20.40;99.90;;;19.84;96.43;100835.84;5038403;28;20053;-84
2022/07/24 05:53:45;;;;;;;11.95;6.30;;;20.50;99.90;;;19.83;96.46;100845.19;5049723;28;20123;-83
2022/07/24 05:56:12;;;;;;;8.70;5.90;;;20.60;99.90;;;19.92;94.23;100843.78;5032357;28;20050;-84
2022/07/24 05:58:44;;;;;;;9.43;5.75;;;20.70;99.90;;;20.06;94.78;100846.31;5049240;28;20598;-84
2022/07/24 06:01:11;;;;;;;9.07;5.75;;;20.80;99.90;;;20.67;92.41;100844.97;5045647;28;20509;-84
2022/07/24 06:03:39;;;;;;;7.35;5.28;;;21.00;99.90;;;20.93;93.05;100844.69;5036297;28;20452;-84
2022/07/24 06:06:07;;;;;;;8.18;5.85;;;21.10;99.90;;;21.90;87.88;100840.13;5049287;28;20091;-83
2022/07/24 06:08:37;;;;;;;8.15;5.63;;;21.40;99.90;;;23.47;80.63;100838.88;5048596;28;20075;-84
2022/07/24 06:11:04;;;;;;;8.57;5.50;;;21.70;99.90;;;24.52;75.20;100835.53;5048326;28;20121;-83
2022/07/24 06:13:34;;;;;;;7.18;5.20;;;22.00;99.90;;;25.98;66.55;100834.53;5049604;28;20049;-84
2022/07/24 06:16:02;;;;;;;7.72;4.78;;;22.40;99.70;;;27.69;59.93;100834.41;5031854;28;20049;-84
2022/07/24 06:18:29;;;;;;;8.70;5.07;;;22.80;98.30;;;27.65;60.11;100841.72;5043481;28;20049;-82
2022/07/24 06:20:57;;;;;;;9.45;5.00;;;23.00;98.00;;;29.95;53.60;100831.69;5036613;28;20045;-87
2022/07/24 06:23:24;;;;;;;8.65;4.95;;;23.10;97.40;;;31.58;48.95;100834.25;5049629;28;20124;-82
2022/07/24 06:25:51;;;;;;;7.07;4.72;;;23.20;97.80;;;31.14;47.85;100839.44;5049372;28;20064;-81
2022/07/24 06:28:19;;;;;;;8.05;4.80;;;23.30;97.60;;;27.97;53.65;100851.56;5049298;28;20049;-85
2022/07/24 06:30:48;;;;;;;8.40;4.75;;;23.40;96.70;;;25.81;61.23;100850.69;5048364;28;20033;-85
2022/07/24 06:33:17;;;;;;;9.73;4.55;;;23.40;96.90;;;24.69;65.37;100857.63;5053771;28;20041;-84
2022/07/24 06:35:44;;;;;;;9.32;4.50;;;23.40;95.70;;;24.23;67.01;100854.53;5045128;28;20417;-84
2022/07/24 06:38:11;;;;;;;7.57;4.40;;;23.50;94.70;;;23.79;70.63;100856.41;5054638;28;20136;-85
2022/07/24 06:40:39;;;;;;;8.38;4.80;;;23.50;95.70;;;23.61;71.72;100854.84;5047890;28;20382;-84
2022/07/24 06:43:08;;;;;;;7.85;4.75;;;23.50;96.10;;;23.49;71.27;100850.56;5056501;28;20049;-85
2022/07/24 06:45:36;;;;;;;6.35;4.10;;;23.50;95.40;;;23.39;70.72;100851.28;5049285;28;20041;-85
2022/07/24 06:48:04;;;;;;;8.02;4.53;;;23.40;94.10;;;23.28;74.42;100858.66;5049415;28;20045;-83
2022/07/24 06:50:32;;;;;;;8.13;4.57;;;23.40;95.40;;;23.30;73.80;100859.25;5051102;28;20500;-83
2022/07/24 06:53:04;;;;;;;7.25;4.53;;;23.40;95.40;;;23.32;76.23;100856.22;5043063;28;20079;-84
2022/07/24 06:55:31;;;;;;;7.70;5.00;;;23.40;95.80;;;23.29;75.25;100860.38;5048128;28;20136;-83
2022/07/24 06:57:59;;;;;;;7.25;4.60;;;23.40;96.10;;;23.26;76.55;100863.66;5049982;28;20044;-84
2022/07/24 07:00:28;;;;;;;7.25;4.78;;;23.30;96.70;;;23.30;76.98;100852.84;5046937;28;20052;-81
2022/07/24 07:02:56;;;;;;;10.23;4.47;;;23.30;97.20;;;23.31;74.90;100860.94;5031036;28;20071;-81
2022/07/24 07:05:28;;;;;;;9.73;4.78;;;23.30;96.30;;;23.39;75.41;100856.84;5051368;28;20128;-82
2022/07/24 07:07:57;;;;;;;8.23;4.97;;;23.30;96.80;;;23.45;74.68;100854.97;5049256;28;20049;-82
2022/07/24 07:10:26;;;;;;;7.07;5.03;;;23.30;96.80;;;23.37;74.49;100859.88;5049299;28;20047;-83
2022/07/24 07:12:56;;;;;;;9.38;5.00;;;23.30;95.90;;;23.38;75.87;100861.56;5049950;28;20045;-82
2022/07/24 07:15:26;;;;;;;11.13;5.23;;;23.40;96.50;;;23.39;75.36;100868.78;5052718;28;20041;-83
2022/07/24 07:17:54;;;;;;;10.95;5.00;;;23.40;96.40;;;23.37;73.47;100870.16;5035112;28;20076;-85
2022/07/24 07:20:21;;;;;;;7.60;4.90;;;23.40;94.90;;;23.31;72.01;100877.59;5034412;28;20073;-87
2022/07/24 07:22:48;;;;;;;9.88;4.88;;;23.40;93.80;;;23.34;72.23;100868.75;5060476;28;20041;-83
2022/07/24 07:25:17;;;;;;;7.75;4.82;;;23.40;94.10;;;23.30;74.33;100870.34;5052732;28;20136;-84
2022/07/24 07:27:44;;;;;;;9.07;5.43;;;23.40;95.40;;;23.27;74.11;100868.13;5037544;28;20175;-83
2022/07/24 07:30:14;;;;;;;8.75;4.40;;;23.40;94.70;;;23.26;73.47;100868.38;5049725;28;20041;-83
2022/07/24 07:32:41;;;;;;;8.82;4.63;;;23.40;94.40;;;23.30;72.74;100870.34;5060656;28;20087;-83
2022/07/24 07:35:09;;;;;;;8.68;5.15;;;23.40;93.90;;;23.33;74.08;100864.28;5052409;28;20048;-83
2022/07/24 07:37:37;;;;;;;7.03;4.55;;;23.40;94.70;;;23.35;73.03;100872.38;5053003;28;20493;-83
2022/07/24 07:40:07;;;;;;;9.65;4.63;;;23.40;94.60;;;23.36;74.40;100866.56;5064976;28;20468;-83
2022/07/24 07:42:35;;;;;;;6.77;5.03;;;23.30;95.60;;;23.38;73.69;100867.13;5056998;28;20093;-83
2022/07/24 07:45:04;;;;;;;9.38;4.80;;;23.40;94.90;;;23.42;72.71;100862.72;5050756;28;20100;-83
2022/07/24 07:47:31;;;;;;;6.82;4.43;;;23.40;94.50;;;23.46;73.78;100873.31;5052265;28;20045;-82
2022/07/24 07:49:58;;;;;;;6.78;4.70;;;23.40;95.20;;;23.48;75.59;100868.34;5051265;28;20048;-83
2022/07/24 07:52:25;;;;;;;7.13;4.70;;;23.40;96.40;;;23.51;74.20;100876.13;5035143;28;20056;-83
2022/07/24 07:54:53;;;;;;;8.13;4.95;;;23.40;95.40;;;23.60;74.59;100874.56;5051041;28;20044;-83
2022/07/24 07:57:20;;;;;;;7.68;5.43;;;23.40;95.70;;;23.62;73.80;100869.56;5052242;28;20067;-84
2022/07/24 07:59:49;;;;;;;6.85;5.18;;;23.50;95.30;;;23.63;72.98;100868.50;5051232;28;20513;-83
2022/07/24 08:02:16;;;;;;;7.43;5.07;;;23.50;94.70;;;23.64;72.72;100863.75;5048164;28;20049;-84
2022/07/24 08:04:44;;;;;;;9.43;5.57;;;23.50;94.30;;;23.67;74.83;100864.06;5051031;28;20049;-84
2022/07/24 08:07:11;;;;;;;8.07;5.20;;;23.60;96.10;;;23.71;72.54;100868.00;5047270;28;20037;-85
2022/07/24 08:09:38;;;;;;;7.35;4.95;;;23.60;94.10;;;23.77;72.13;100866.09;5052661;28;20650;-84
2022/07/24 08:12:06;;;;;;;8.35;5.10;;;23.70;94.10;;;23.75;73.13;100866.38;5050570;28;20053;-84
2022/07/24 08:14:33;;;;;;;8.93;5.22;;;23.70;94.40;;;23.79;75.23;100861.97;5028738;28;20136;-84
2022/07/24 08:17:02;;;;;;;8.57;5.03;;;23.70;96.20;;;23.87;74.29;100862.59;5049499;28;20041;-84
2022/07/24 08:19:29;;;;;;;7.78;5.82;;;23.80;95.50;;;23.92;75.33;100862.66;5048091;28;20036;-84
2022/07/24 08:21:56;;;;;;;12.50;6.20;;;23.80;95.90;;;23.93;71.07;100858.75;5048154;28;20076;-84
2022/07/24 08:24:24;;;;;;;10.02;5.70;;;23.90;93.30;;;23.95;73.50;100862.97;5048821;28;20055;-84
2022/07/24 08:26:51;;;;;;;10.07;5.78;;;23.90;94.80;;;23.99;72.59;100849.38;5050456;28;20037;-84
2022/07/24 08:29:18;;;;;;;10.52;5.75;;;23.90;94.20;;;24.04;73.23;100863.28;5045323;28;20126;-84
2022/07/24 08:31:46;;;;;;;8.38;5.97;;;24.00;94.60;;;24.05;73.66;100856.66;5042289;28;20041;-85
2022/07/24 08:34:14;;;;;;;9.02;6.40;;;24.00;95.10;;;24.10;71.75;100851.09;5049872;28;20037;-84
2022/07/24 08:36:45;;;;;;;8.18;5.80;;;24.10;93.40;;;24.15;71.82;100859.50;5050437;28;20563;-84
2022/07/24 08:39:13;;;;;;;10.27;6.90;;;24.10;93.40;;;24.15;70.09;100856.72;5050738;28;20075;-86
2022/07/24 08:41:41;;;;;;;11.90;6.28;;;24.10;92.20;;;24.15;70.75;100856.72;5046074;28;20635;-84
2022/07/24 08:44:09;;;;;;;11.55;6.55;;;24.10;92.90;;;24.15;71.64;100858.66;5050437;28;20072;-86
2022/07/24 08:46:39;;;;;;;10.45;6.38;;;24.20;93.50;;;24.20;71.21;100853.97;5043255;28;20219;-87
2022/07/24 08:49:10;;;;;;;12.15;6.82;;;24.30;92.90;;;24.24;70.78;100857.06;5030779;28;20095;-87
2022/07/24 08:51:42;;;;;;;12.00;7.43;;;24.30;92.50;;;24.26;70.92;100859.59;5049961;28;20044;-89
2022/07/24 08:54:11;;;;;;;11.10;6.45;;;24.30;92.20;;;24.29;71.51;100854.28;5048664;28;20086;-86
2022/07/24 08:56:40;;;;;;;17.55;7.45;;;24.40;92.40;;;24.32;71.75;100845.41;5050124;28;20115;-86
2022/07/24 08:59:18;;;;;;;9.35;6.53;;;24.40;93.00;;;24.36;72.59;100848.50;5030950;28;20106;-87
2022/07/24 09:01:47;;;;;;;9.73;6.45;;;24.50;94.00;;;24.46;72.71;100842.16;5046099;28;20119;-86
2022/07/24 09:04:35;;;;;;;12.52;6.85;;;24.50;93.90;;;24.52;71.75;100835.53;5049688;28;20477;-91
2022/07/24 09:07:07;;;;;;;11.82;6.97;;;24.50;93.00;;;24.54;72.35;100842.53;5045796;28;20044;-86
2022/07/24 09:09:34;;;;;;;10.07;6.60;;;24.60;93.30;;;24.52;72.55;100839.19;5048070;28;20124;-86
2022/07/24 09:12:08;;;;;;;12.32;6.93;;;24.70;93.60;;;24.58;70.87;100829.75;5047655;28;20053;-86
2022/07/24 09:14:38;;;;;;;9.77;6.95;;;24.70;92.20;;;24.59;72.42;100831.41;5046677;28;20045;-87
2022/07/24 09:17:07;;;;;;;10.20;6.75;;;24.70;93.10;;;24.62;71.53;100826.41;5032030;28;20452;-86
2022/07/24 09:19:48;;;;;;;9.95;7.40;;;24.80;92.50;;;24.66;71.62;100819.22;5049415;28;20040;-87
2022/07/24 09:22:32;;;;;;;12.27;7.25;;;24.80;92.70;;;24.67;71.84;100820.88;5047636;28;20041;-87
2022/07/24 09:25:14;;;;;;;10.68;6.65;;;24.80;92.90;;;24.71;71.12;100816.44;5045734;28;20123;-86
2022/07/24 09:27:48;;;;;;;11.73;6.95;;;24.90;91.90;;;24.72;70.89;100812.56;5043678;28;20106;-86
2022/07/24 09:30:30;;;;;;;10.88;6.90;;;24.90;91.90;;;24.73;69.63;100801.16;5049558;28;20037;-86
2022/07/24 09:32:59;;;;;;;12.82;7.07;;;24.90;90.80;;;24.74;72.69;100810.34;5030137;28;20044;-87
2022/07/24 09:35:32;;;;;;;11.13;7.38;;;24.90;93.40;;;24.74;69.01;100810.34;5049106;28;20056;-86
2022/07/24 09:38:03;;;;;;;10.50;7.07;;;25.00;90.10;;;24.71;68.51;100806.16;5048481;28;20090;-86
2022/07/24 09:40:34;;;;;;;10.57;6.97;;;25.00;89.70;;;24.69;70.17;100799.16;5044412;28;20091;-86
2022/07/24 09:43:21;;;;;;;11.05;7.43;;;25.00;90.40;;;24.74;71.39;100804.75;5046356;28;20049;-88
2022/07/24 09:46:01;;;;;;;9.63;6.95;;;25.00;91.90;;;24.74;69.69;100799.19;5046549;28;20075;-87
2022/07/24 09:48:31;;;;;;;11.52;7.43;;;25.10;90.60;;;24.75;69.25;100806.41;5053482;28;20068;-87
2022/07/24 09:51:01;;;;;;;10.60;6.80;;;25.00;89.60;;;24.75;68.87;100790.59;5047971;28;20451;-87
2022/07/24 09:53:32;;;;;;;10.87;7.40;;;25.00;89.60;;;24.80;69.51;100800.06;5050559;28;20524;-87
2022/07/24 09:56:04;;;;;;;9.00;6.85;;;25.10;90.10;;;24.83;69.00;100803.13;5049215;28;20501;-87
2022/07/24 09:58:34;;;;;;;9.88;6.75;;;25.20;89.40;;;24.87;68.65;100793.13;5046637;28;20119;-87
2022/07/24 10:01:03;;;;;;;8.95;6.55;;;25.20;89.40;;;24.90;72.78;100803.72;5048644;28;20098;-87
2022/07/24 10:03:33;;;;;;;11.98;6.97;;;25.30;92.60;;;24.97;70.68;100793.13;5047929;28;20136;-93
2022/07/24 10:06:03;;;;;;;9.18;6.20;;;25.20;91.40;;;25.03;71.30;100790.38;5047868;28;20041;-87
2022/07/24 10:08:33;;;;;;;9.05;6.35;;;25.30;91.60;;;25.07;70.13;100786.75;5041589;28;20520;-87
2022/07/24 10:11:01;;;;;;;9.10;6.10;;;25.30;90.80;;;25.09;70.13;100792.91;5045066;28;20060;-86